sensor_id;sensor_type;location;lat;lon;timestamp;P1;durP1;ratioP1;P2;durP2;ratioP2
32407;SDS011;18869;55.970;37.502;2022-10-31T00:01:11;4.03;;;3.13;;
32407;SDS011;18869;55.970;37.502;2022-10-31T00:03:41;4.90;;;3.37;;
32407;SDS011;18869;55.970;37.502;2022-10-31T00:06:08;3.00;;;2.53;;
32407;SDS011;18869;55.970;37.502;2022-10-31T00:08:37;3.73;;;3.13;;
32407;SDS011;18869;55.970;37.502;2022-10-31T00:11:08;3.23;;;2.90;;
32407;SDS011;18869;55.970;37.502;2022-10-31T00:13:35;2.43;;;2.33;;
32407;SDS011;18869;55.970;37.502;2022-10-31T00:16:03;2.90;;;2.80;;
32407;SDS011;18869;55.970;37.502;2022-10-31T00:18:31;2.60;;;2.50;;
32407;SDS011;18869;55.970;37.502;2022-10-31T00:20:59;2.70;;;2.50;;
32407;SDS011;18869;55.970;37.502;2022-10-31T00:23:27;3.07;;;2.97;;
32407;SDS011;18869;55.970;37.502;2022-10-31T00:26:01;3.10;;;2.90;;
32407;SDS011;18869;55.970;37.502;2022-10-31T00:28:28;3.20;;;3.00;;
32407;SDS011;18869;55.970;37.502;2022-10-31T00:30:58;2.60;;;2.40;;
32407;SDS011;18869;55.970;37.502;2022-10-31T00:33:27;2.80;;;2.60;;
32407;SDS011;18869;55.970;37.502;2022-10-31T00:35:55;3.23;;;2.60;;
32407;SDS011;18869;55.970;37.502;2022-10-31T00:38:23;2.80;;;2.60;;
32407;SDS011;18869;55.970;37.502;2022-10-31T00:40:50;3.00;;;2.80;;
32407;SDS011;18869;55.970;37.502;2022-10-31T00:43:19;2.50;;;2.40;;
32407;SDS011;18869;55.970;37.502;2022-10-31T00:45:47;3.03;;;2.83;;
32407;SDS011;18869;55.970;37.502;2022-10-31T00:48:14;2.67;;;2.57;;
32407;SDS011;18869;55.970;37.502;2022-10-31T00:50:41;2.60;;;2.40;;
32407;SDS011;18869;55.970;37.502;2022-10-31T00:53:10;2.80;;;2.70;;
32407;SDS011;18869;55.970;37.502;2022-10-31T00:55:37;2.73;;;2.63;;
32407;SDS011;18869;55.970;37.502;2022-10-31T00:58:05;2.70;;;2.50;;
32407;SDS011;18869;55.970;37.502;2022-10-31T01:00:35;2.70;;;2.60;;
32407;SDS011;18869;55.970;37.502;2022-10-31T01:03:02;2.37;;;2.27;;
32407;SDS011;18869;55.970;37.502;2022-10-31T01:05:30;2.77;;;2.57;;
32407;SDS011;18869;55.970;37.502;2022-10-31T01:07:58;3.40;;;3.23;;
32407;SDS011;18869;55.970;37.502;2022-10-31T01:10:26;2.40;;;2.30;;
32407;SDS011;18869;55.970;37.502;2022-10-31T01:12:54;2.53;;;2.43;;
32407;SDS011;18869;55.970;37.502;2022-10-31T01:15:22;2.87;;;2.67;;
32407;SDS011;18869;55.970;37.502;2022-10-31T01:17:51;2.53;;;2.43;;
32407;SDS011;18869;55.970;37.502;2022-10-31T01:20:18;4.60;;;2.77;;
32407;SDS011;18869;55.970;37.502;2022-10-31T01:22:46;3.13;;;2.93;;
32407;SDS011;18869;55.970;37.502;2022-10-31T01:25:14;3.17;;;2.97;;
32407;SDS011;18869;55.970;37.502;2022-10-31T01:27:42;3.10;;;2.80;;
32407;SDS011;18869;55.970;37.502;2022-10-31T01:30:10;2.93;;;2.83;;
32407;SDS011;18869;55.970;37.502;2022-10-31T01:32:38;2.53;;;2.40;;
32407;SDS011;18869;55.970;37.502;2022-10-31T01:35:07;4.80;;;3.23;;
32407;SDS011;18869;55.970;37.502;2022-10-31T01:37:35;3.60;;;3.40;;
32407;SDS011;18869;55.970;37.502;2022-10-31T01:40:04;2.57;;;2.47;;
32407;SDS011;18869;55.970;37.502;2022-10-31T01:42:32;3.17;;;2.97;;
32407;SDS011;18869;55.970;37.502;2022-10-31T01:45:01;3.80;;;3.50;;
32407;SDS011;18869;55.970;37.502;2022-10-31T01:47:34;3.20;;;3.00;;
32407;SDS011;18869;55.970;37.502;2022-10-31T01:50:10;6.03;;;2.83;;
32407;SDS011;18869;55.970;37.502;2022-10-31T01:52:40;3.17;;;2.97;;
32407;SDS011;18869;55.970;37.502;2022-10-31T01:55:12;3.47;;;3.20;;
32407;SDS011;18869;55.970;37.502;2022-10-31T01:57:41;2.70;;;2.60;;
32407;SDS011;18869;55.970;37.502;2022-10-31T02:00:12;2.87;;;2.73;;
32407;SDS011;18869;55.970;37.502;2022-10-31T02:02:40;3.10;;;2.80;;
32407;SDS011;18869;55.970;37.502;2022-10-31T02:05:12;3.33;;;3.03;;
32407;SDS011;18869;55.970;37.502;2022-10-31T02:07:42;3.20;;;3.00;;
32407;SDS011;18869;55.970;37.502;2022-10-31T02:10:14;3.30;;;3.07;;
32407;SDS011;18869;55.970;37.502;2022-10-31T02:12:42;3.37;;;3.17;;
32407;SDS011;18869;55.970;37.502;2022-10-31T02:15:10;3.60;;;3.40;;
32407;SDS011;18869;55.970;37.502;2022-10-31T02:17:41;3.47;;;3.23;;
32407;SDS011;18869;55.970;37.502;2022-10-31T02:20:12;2.90;;;2.63;;
32407;SDS011;18869;55.970;37.502;2022-10-31T02:22:51;3.80;;;3.60;;
32407;SDS011;18869;55.970;37.502;2022-10-31T02:25:34;3.17;;;2.97;;
32407;SDS011;18869;55.970;37.502;2022-10-31T02:28:18;3.40;;;3.00;;
32407;SDS011;18869;55.970;37.502;2022-10-31T02:30:59;3.30;;;3.10;;
32407;SDS011;18869;55.970;37.502;2022-10-31T02:33:30;3.37;;;3.07;;
32407;SDS011;18869;55.970;37.502;2022-10-31T02:36:01;3.43;;;3.13;;
32407;SDS011;18869;55.970;37.502;2022-10-31T02:38:36;3.10;;;2.90;;
32407;SDS011;18869;55.970;37.502;2022-10-31T02:41:11;3.30;;;3.10;;
32407;SDS011;18869;55.970;37.502;2022-10-31T02:43:44;3.50;;;3.30;;
32407;SDS011;18869;55.970;37.502;2022-10-31T02:46:19;3.73;;;3.27;;
32407;SDS011;18869;55.970;37.502;2022-10-31T02:48:52;3.77;;;3.57;;
32407;SDS011;18869;55.970;37.502;2022-10-31T02:51:22;4.10;;;3.37;;
32407;SDS011;18869;55.970;37.502;2022-10-31T02:53:49;2.90;;;2.80;;
32407;SDS011;18869;55.970;37.502;2022-10-31T02:56:17;3.13;;;2.93;;
32407;SDS011;18869;55.970;37.502;2022-10-31T02:58:46;3.03;;;2.90;;
32407;SDS011;18869;55.970;37.502;2022-10-31T03:01:26;3.27;;;3.07;;
32407;SDS011;18869;55.970;37.502;2022-10-31T03:04:22;4.17;;;3.20;;
32407;SDS011;18869;55.970;37.502;2022-10-31T03:07:10;4.60;;;3.00;;
32407;SDS011;18869;55.970;37.502;2022-10-31T03:09:45;3.40;;;3.20;;
32407;SDS011;18869;55.970;37.502;2022-10-31T03:12:19;3.33;;;3.13;;
32407;SDS011;18869;55.970;37.502;2022-10-31T03:14:54;3.60;;;3.30;;
32407;SDS011;18869;55.970;37.502;2022-10-31T03:17:28;6.10;;;3.07;;
32407;SDS011;18869;55.970;37.502;2022-10-31T03:20:01;3.60;;;3.40;;
32407;SDS011;18869;55.970;37.502;2022-10-31T03:22:31;3.37;;;3.17;;
32407;SDS011;18869;55.970;37.502;2022-10-31T03:24:59;3.23;;;3.03;;
32407;SDS011;18869;55.970;37.502;2022-10-31T03:27:32;3.60;;;3.30;;
32407;SDS011;18869;55.970;37.502;2022-10-31T03:30:02;3.43;;;3.20;;
32407;SDS011;18869;55.970;37.502;2022-10-31T03:32:36;3.33;;;3.13;;
32407;SDS011;18869;55.970;37.502;2022-10-31T03:35:07;3.03;;;2.70;;
32407;SDS011;18869;55.970;37.502;2022-10-31T03:37:36;4.00;;;3.80;;
32407;SDS011;18869;55.970;37.502;2022-10-31T03:40:08;3.07;;;2.87;;
32407;SDS011;18869;55.970;37.502;2022-10-31T03:42:38;3.10;;;2.90;;
32407;SDS011;18869;55.970;37.502;2022-10-31T03:45:07;3.60;;;3.40;;
32407;SDS011;18869;55.970;37.502;2022-10-31T03:47:41;4.07;;;3.73;;
32407;SDS011;18869;55.970;37.502;2022-10-31T03:50:10;3.50;;;3.30;;
32407;SDS011;18869;55.970;37.502;2022-10-31T03:52:41;6.20;;;3.40;;
32407;SDS011;18869;55.970;37.502;2022-10-31T03:55:13;3.03;;;2.83;;
32407;SDS011;18869;55.970;37.502;2022-10-31T03:57:45;3.77;;;3.53;;
32407;SDS011;18869;55.970;37.502;2022-10-31T04:00:19;4.20;;;3.90;;
32407;SDS011;18869;55.970;37.502;2022-10-31T04:02:49;3.20;;;3.00;;
32407;SDS011;18869;55.970;37.502;2022-10-31T04:05:19;3.50;;;3.30;;
32407;SDS011;18869;55.970;37.502;2022-10-31T04:07:49;4.10;;;3.90;;
32407;SDS011;18869;55.970;37.502;2022-10-31T04:10:19;3.83;;;3.63;;
32407;SDS011;18869;55.970;37.502;2022-10-31T04:12:48;2.80;;;2.60;;
32407;SDS011;18869;55.970;37.502;2022-10-31T04:15:19;4.30;;;4.00;;
32407;SDS011;18869;55.970;37.502;2022-10-31T04:17:51;4.07;;;3.63;;
32407;SDS011;18869;55.970;37.502;2022-10-31T04:20:28;3.57;;;3.27;;
32407;SDS011;18869;55.970;37.502;2022-10-31T04:22:56;3.73;;;3.53;;
32407;SDS011;18869;55.970;37.502;2022-10-31T04:25:24;3.23;;;3.03;;
32407;SDS011;18869;55.970;37.502;2022-10-31T04:27:53;3.33;;;3.13;;
32407;SDS011;18869;55.970;37.502;2022-10-31T04:30:22;4.17;;;3.30;;
32407;SDS011;18869;55.970;37.502;2022-10-31T04:32:51;3.43;;;3.23;;
32407;SDS011;18869;55.970;37.502;2022-10-31T04:35:20;3.80;;;2.93;;
32407;SDS011;18869;55.970;37.502;2022-10-31T04:37:48;5.83;;;4.10;;
32407;SDS011;18869;55.970;37.502;2022-10-31T04:40:16;5.27;;;3.50;;
32407;SDS011;18869;55.970;37.502;2022-10-31T04:42:45;3.20;;;3.00;;
32407;SDS011;18869;55.970;37.502;2022-10-31T04:45:13;4.10;;;3.83;;
32407;SDS011;18869;55.970;37.502;2022-10-31T04:47:41;3.87;;;3.60;;
32407;SDS011;18869;55.970;37.502;2022-10-31T04:50:10;3.00;;;2.80;;
32407;SDS011;18869;55.970;37.502;2022-10-31T04:52:38;2.90;;;2.80;;
32407;SDS011;18869;55.970;37.502;2022-10-31T04:55:07;3.93;;;3.73;;
32407;SDS011;18869;55.970;37.502;2022-10-31T04:57:40;2.87;;;2.77;;
32407;SDS011;18869;55.970;37.502;2022-10-31T05:00:08;3.47;;;2.67;;
32407;SDS011;18869;55.970;37.502;2022-10-31T05:02:42;3.20;;;3.10;;
32407;SDS011;18869;55.970;37.502;2022-10-31T05:05:13;3.47;;;3.20;;
32407;SDS011;18869;55.970;37.502;2022-10-31T05:07:42;3.60;;;3.40;;
32407;SDS011;18869;55.970;37.502;2022-10-31T05:10:14;3.30;;;3.10;;
32407;SDS011;18869;55.970;37.502;2022-10-31T05:12:45;3.30;;;3.10;;
32407;SDS011;18869;55.970;37.502;2022-10-31T05:15:19;2.97;;;2.87;;
32407;SDS011;18869;55.970;37.502;2022-10-31T05:17:52;3.73;;;3.43;;
32407;SDS011;18869;55.970;37.502;2022-10-31T05:20:25;3.67;;;3.43;;
32407;SDS011;18869;55.970;37.502;2022-10-31T05:22:55;3.30;;;3.00;;
32407;SDS011;18869;55.970;37.502;2022-10-31T05:25:24;4.37;;;4.07;;
32407;SDS011;18869;55.970;37.502;2022-10-31T05:27:53;4.30;;;4.00;;
32407;SDS011;18869;55.970;37.502;2022-10-31T05:30:22;3.20;;;3.10;;
32407;SDS011;18869;55.970;37.502;2022-10-31T05:32:51;3.23;;;3.03;;
32407;SDS011;18869;55.970;37.502;2022-10-31T05:35:24;3.60;;;3.40;;
32407;SDS011;18869;55.970;37.502;2022-10-31T05:37:54;5.73;;;3.60;;
32407;SDS011;18869;55.970;37.502;2022-10-31T05:40:23;3.20;;;3.00;;
32407;SDS011;18869;55.970;37.502;2022-10-31T05:42:52;3.23;;;3.03;;
32407;SDS011;18869;55.970;37.502;2022-10-31T05:45:21;3.57;;;3.37;;
32407;SDS011;18869;55.970;37.502;2022-10-31T05:47:49;3.00;;;2.80;;
32407;SDS011;18869;55.970;37.502;2022-10-31T05:50:19;2.70;;;2.50;;
32407;SDS011;18869;55.970;37.502;2022-10-31T05:52:55;2.80;;;2.60;;
32407;SDS011;18869;55.970;37.502;2022-10-31T05:55:23;2.97;;;2.87;;
32407;SDS011;18869;55.970;37.502;2022-10-31T05:57:52;3.20;;;3.03;;
32407;SDS011;18869;55.970;37.502;2022-10-31T06:00:20;3.00;;;2.77;;
32407;SDS011;18869;55.970;37.502;2022-10-31T06:02:48;2.80;;;2.60;;
32407;SDS011;18869;55.970;37.502;2022-10-31T06:05:19;3.10;;;2.90;;
32407;SDS011;18869;55.970;37.502;2022-10-31T06:07:46;3.07;;;2.97;;
32407;SDS011;18869;55.970;37.502;2022-10-31T06:10:15;2.83;;;2.63;;
32407;SDS011;18869;55.970;37.502;2022-10-31T06:12:51;3.33;;;2.70;;
32407;SDS011;18869;55.970;37.502;2022-10-31T06:15:18;3.00;;;2.90;;
32407;SDS011;18869;55.970;37.502;2022-10-31T06:17:46;2.93;;;2.80;;
32407;SDS011;18869;55.970;37.502;2022-10-31T06:20:16;3.67;;;3.27;;
32407;SDS011;18869;55.970;37.502;2022-10-31T06:22:45;3.20;;;3.00;;
32407;SDS011;18869;55.970;37.502;2022-10-31T06:25:14;3.60;;;3.40;;
32407;SDS011;18869;55.970;37.502;2022-10-31T06:27:43;3.33;;;3.17;;
32407;SDS011;18869;55.970;37.502;2022-10-31T06:30:12;3.20;;;3.07;;
32407;SDS011;18869;55.970;37.502;2022-10-31T06:32:41;3.40;;;3.20;;
32407;SDS011;18869;55.970;37.502;2022-10-31T06:35:09;2.70;;;2.57;;
32407;SDS011;18869;55.970;37.502;2022-10-31T06:37:38;3.27;;;3.07;;
32407;SDS011;18869;55.970;37.502;2022-10-31T06:40:06;3.23;;;3.03;;
32407;SDS011;18869;55.970;37.502;2022-10-31T06:42:41;2.93;;;2.73;;
32407;SDS011;18869;55.970;37.502;2022-10-31T06:45:13;3.10;;;2.90;;
32407;SDS011;18869;55.970;37.502;2022-10-31T06:47:50;2.43;;;2.33;;
32407;SDS011;18869;55.970;37.502;2022-10-31T06:50:20;3.17;;;2.63;;
32407;SDS011;18869;55.970;37.502;2022-10-31T06:52:51;2.83;;;2.73;;
32407;SDS011;18869;55.970;37.502;2022-10-31T06:55:19;2.83;;;2.73;;
32407;SDS011;18869;55.970;37.502;2022-10-31T06:57:53;3.23;;;2.70;;
32407;SDS011;18869;55.970;37.502;2022-10-31T07:00:21;2.70;;;2.50;;
32407;SDS011;18869;55.970;37.502;2022-10-31T07:02:55;2.90;;;2.80;;
32407;SDS011;18869;55.970;37.502;2022-10-31T07:05:23;3.97;;;3.77;;
32407;SDS011;18869;55.970;37.502;2022-10-31T07:07:51;3.40;;;3.20;;
32407;SDS011;18869;55.970;37.502;2022-10-31T07:10:20;3.00;;;2.90;;
32407;SDS011;18869;55.970;37.502;2022-10-31T07:12:54;2.43;;;2.33;;
32407;SDS011;18869;55.970;37.502;2022-10-31T07:15:23;2.97;;;2.77;;
32407;SDS011;18869;55.970;37.502;2022-10-31T07:17:51;3.67;;;2.97;;
32407;SDS011;18869;55.970;37.502;2022-10-31T07:20:19;2.87;;;2.77;;
32407;SDS011;18869;55.970;37.502;2022-10-31T07:22:47;2.70;;;2.60;;
32407;SDS011;18869;55.970;37.502;2022-10-31T07:25:14;3.00;;;2.90;;
32407;SDS011;18869;55.970;37.502;2022-10-31T07:27:44;3.10;;;3.00;;
32407;SDS011;18869;55.970;37.502;2022-10-31T07:30:13;3.80;;;3.40;;
32407;SDS011;18869;55.970;37.502;2022-10-31T07:32:43;3.23;;;3.10;;
32407;SDS011;18869;55.970;37.502;2022-10-31T07:35:13;2.90;;;2.80;;
32407;SDS011;18869;55.970;37.502;2022-10-31T07:37:42;2.73;;;2.63;;
32407;SDS011;18869;55.970;37.502;2022-10-31T07:40:10;2.47;;;2.27;;
32407;SDS011;18869;55.970;37.502;2022-10-31T07:42:39;2.60;;;2.40;;
32407;SDS011;18869;55.970;37.502;2022-10-31T07:45:10;2.33;;;2.23;;
32407;SDS011;18869;55.970;37.502;2022-10-31T07:47:44;2.30;;;2.20;;
32407;SDS011;18869;55.970;37.502;2022-10-31T07:50:15;3.00;;;2.90;;
32407;SDS011;18869;55.970;37.502;2022-10-31T07:52:59;2.23;;;2.13;;
32407;SDS011;18869;55.970;37.502;2022-10-31T07:55:30;2.73;;;2.63;;
32407;SDS011;18869;55.970;37.502;2022-10-31T07:57:58;3.20;;;2.50;;
32407;SDS011;18869;55.970;37.502;2022-10-31T08:00:27;3.37;;;2.57;;
32407;SDS011;18869;55.970;37.502;2022-10-31T08:03:00;2.50;;;2.40;;
32407;SDS011;18869;55.970;37.502;2022-10-31T08:05:31;2.20;;;2.10;;
32407;SDS011;18869;55.970;37.502;2022-10-31T08:08:00;2.57;;;2.40;;
32407;SDS011;18869;55.970;37.502;2022-10-31T08:10:28;2.90;;;2.80;;
32407;SDS011;18869;55.970;37.502;2022-10-31T08:12:58;2.67;;;2.47;;
32407;SDS011;18869;55.970;37.502;2022-10-31T08:15:28;3.17;;;2.87;;
32407;SDS011;18869;55.970;37.502;2022-10-31T08:17:55;2.40;;;2.30;;
32407;SDS011;18869;55.970;37.502;2022-10-31T08:20:25;2.63;;;2.43;;
32407;SDS011;18869;55.970;37.502;2022-10-31T08:22:54;2.30;;;2.20;;
32407;SDS011;18869;55.970;37.502;2022-10-31T08:25:22;2.63;;;2.53;;
32407;SDS011;18869;55.970;37.502;2022-10-31T08:27:51;3.17;;;2.97;;
32407;SDS011;18869;55.970;37.502;2022-10-31T08:30:19;3.10;;;2.90;;
32407;SDS011;18869;55.970;37.502;2022-10-31T08:32:56;3.17;;;2.97;;
32407;SDS011;18869;55.970;37.502;2022-10-31T08:35:32;2.60;;;2.50;;
32407;SDS011;18869;55.970;37.502;2022-10-31T08:38:03;2.87;;;2.67;;
32407;SDS011;18869;55.970;37.502;2022-10-31T08:40:31;2.80;;;2.60;;
32407;SDS011;18869;55.970;37.502;2022-10-31T08:43:02;3.63;;;3.37;;
32407;SDS011;18869;55.970;37.502;2022-10-31T08:45:31;5.30;;;3.23;;
32407;SDS011;18869;55.970;37.502;2022-10-31T08:48:01;3.43;;;3.23;;
32407;SDS011;18869;55.970;37.502;2022-10-31T08:50:34;3.40;;;3.20;;
32407;SDS011;18869;55.970;37.502;2022-10-31T08:53:04;3.13;;;2.93;;
32407;SDS011;18869;55.970;37.502;2022-10-31T08:55:32;3.87;;;3.57;;
32407;SDS011;18869;55.970;37.502;2022-10-31T08:58:01;3.63;;;3.43;;
32407;SDS011;18869;55.970;37.502;2022-10-31T09:00:32;3.37;;;3.17;;
32407;SDS011;18869;55.970;37.502;2022-10-31T09:03:09;4.10;;;3.90;;
32407;SDS011;18869;55.970;37.502;2022-10-31T09:05:39;3.40;;;3.17;;
32407;SDS011;18869;55.970;37.502;2022-10-31T09:08:08;3.33;;;3.07;;
32407;SDS011;18869;55.970;37.502;2022-10-31T09:10:36;6.27;;;3.03;;
32407;SDS011;18869;55.970;37.502;2022-10-31T09:13:05;3.33;;;3.03;;
32407;SDS011;18869;55.970;37.502;2022-10-31T09:15:36;2.90;;;2.70;;
32407;SDS011;18869;55.970;37.502;2022-10-31T09:18:07;3.27;;;3.07;;
32407;SDS011;18869;55.970;37.502;2022-10-31T09:20:36;2.87;;;2.77;;
32407;SDS011;18869;55.970;37.502;2022-10-31T09:23:08;3.07;;;2.30;;
32407;SDS011;18869;55.970;37.502;2022-10-31T09:25:37;2.80;;;2.70;;
32407;SDS011;18869;55.970;37.502;2022-10-31T09:28:09;2.50;;;2.30;;
32407;SDS011;18869;55.970;37.502;2022-10-31T09:30:38;2.20;;;1.80;;
32407;SDS011;18869;55.970;37.502;2022-10-31T09:33:06;1.87;;;1.77;;
32407;SDS011;18869;55.970;37.502;2022-10-31T09:35:36;2.23;;;2.13;;
32407;SDS011;18869;55.970;37.502;2022-10-31T09:38:05;2.00;;;1.90;;
32407;SDS011;18869;55.970;37.502;2022-10-31T09:40:37;2.23;;;2.13;;
32407;SDS011;18869;55.970;37.502;2022-10-31T09:43:08;1.97;;;1.87;;
32407;SDS011;18869;55.970;37.502;2022-10-31T09:45:44;3.50;;;2.20;;
32407;SDS011;18869;55.970;37.502;2022-10-31T09:51:28;1.70;;;1.70;;
32407;SDS011;18869;55.970;37.502;2022-10-31T09:54:02;1.97;;;1.87;;
32407;SDS011;18869;55.970;37.502;2022-10-31T09:56:33;2.00;;;1.90;;
32407;SDS011;18869;55.970;37.502;2022-10-31T09:59:02;1.83;;;1.80;;
32407;SDS011;18869;55.970;37.502;2022-10-31T10:01:33;2.10;;;2.00;;
32407;SDS011;18869;55.970;37.502;2022-10-31T10:04:11;2.27;;;2.07;;
32407;SDS011;18869;55.970;37.502;2022-10-31T10:06:48;1.97;;;1.87;;
32407;SDS011;18869;55.970;37.502;2022-10-31T10:09:24;1.70;;;1.60;;
32407;SDS011;18869;55.970;37.502;2022-10-31T10:11:57;2.10;;;2.10;;
32407;SDS011;18869;55.970;37.502;2022-10-31T10:14:41;2.40;;;2.30;;
32407;SDS011;18869;55.970;37.502;2022-10-31T10:17:18;2.20;;;2.00;;
32407;SDS011;18869;55.970;37.502;2022-10-31T10:20:10;3.60;;;1.90;;
32407;SDS011;18869;55.970;37.502;2022-10-31T10:22:54;2.30;;;2.20;;
32407;SDS011;18869;55.970;37.502;2022-10-31T10:25:31;1.97;;;1.87;;
32407;SDS011;18869;55.970;37.502;2022-10-31T10:28:08;2.17;;;2.07;;
32407;SDS011;18869;55.970;37.502;2022-10-31T10:30:43;1.97;;;1.83;;
32407;SDS011;18869;55.970;37.502;2022-10-31T10:33:14;2.13;;;2.03;;
32407;SDS011;18869;55.970;37.502;2022-10-31T10:35:44;2.47;;;2.37;;
32407;SDS011;18869;55.970;37.502;2022-10-31T10:38:16;2.50;;;2.30;;
32407;SDS011;18869;55.970;37.502;2022-10-31T10:40:48;1.50;;;1.50;;
32407;SDS011;18869;55.970;37.502;2022-10-31T10:43:19;2.53;;;2.43;;
32407;SDS011;18869;55.970;37.502;2022-10-31T10:45:50;2.73;;;1.60;;
32407;SDS011;18869;55.970;37.502;2022-10-31T10:48:42;1.60;;;1.50;;
32407;SDS011;18869;55.970;37.502;2022-10-31T10:51:15;2.10;;;2.00;;
32407;SDS011;18869;55.970;37.502;2022-10-31T10:53:50;2.20;;;2.10;;
32407;SDS011;18869;55.970;37.502;2022-10-31T10:56:44;2.67;;;2.57;;
32407;SDS011;18869;55.970;37.502;2022-10-31T10:59:16;2.97;;;2.40;;
32407;SDS011;18869;55.970;37.502;2022-10-31T11:01:48;2.37;;;2.27;;
32407;SDS011;18869;55.970;37.502;2022-10-31T11:04:28;2.20;;;2.10;;
32407;SDS011;18869;55.970;37.502;2022-10-31T11:07:02;2.00;;;1.90;;
32407;SDS011;18869;55.970;37.502;2022-10-31T11:09:30;1.73;;;1.73;;
32407;SDS011;18869;55.970;37.502;2022-10-31T11:11:59;2.10;;;2.00;;
32407;SDS011;18869;55.970;37.502;2022-10-31T11:14:33;2.00;;;1.90;;
32407;SDS011;18869;55.970;37.502;2022-10-31T11:17:07;2.73;;;2.63;;
32407;SDS011;18869;55.970;37.502;2022-10-31T11:19:43;2.37;;;2.27;;
32407;SDS011;18869;55.970;37.502;2022-10-31T11:22:14;2.60;;;2.40;;
32407;SDS011;18869;55.970;37.502;2022-10-31T11:24:42;2.30;;;2.20;;
32407;SDS011;18869;55.970;37.502;2022-10-31T11:27:16;2.53;;;2.33;;
32407;SDS011;18869;55.970;37.502;2022-10-31T11:29:48;2.13;;;2.03;;
32407;SDS011;18869;55.970;37.502;2022-10-31T11:32:18;2.93;;;2.80;;
32407;SDS011;18869;55.970;37.502;2022-10-31T11:34:47;3.27;;;3.13;;
32407;SDS011;18869;55.970;37.502;2022-10-31T11:37:18;2.53;;;2.40;;
32407;SDS011;18869;55.970;37.502;2022-10-31T11:39:48;2.80;;;2.70;;
32407;SDS011;18869;55.970;37.502;2022-10-31T11:42:20;2.53;;;2.43;;
32407;SDS011;18869;55.970;37.502;2022-10-31T11:44:51;2.47;;;2.37;;
32407;SDS011;18869;55.970;37.502;2022-10-31T11:47:22;2.30;;;2.20;;
32407;SDS011;18869;55.970;37.502;2022-10-31T11:49:59;2.37;;;2.27;;
32407;SDS011;18869;55.970;37.502;2022-10-31T11:52:30;2.30;;;2.20;;
32407;SDS011;18869;55.970;37.502;2022-10-31T11:55:14;2.87;;;2.67;;
32407;SDS011;18869;55.970;37.502;2022-10-31T11:57:46;2.77;;;2.57;;
32407;SDS011;18869;55.970;37.502;2022-10-31T12:00:20;2.47;;;2.37;;
32407;SDS011;18869;55.970;37.502;2022-10-31T12:02:49;2.60;;;2.50;;
32407;SDS011;18869;55.970;37.502;2022-10-31T12:05:17;2.20;;;2.10;;
32407;SDS011;18869;55.970;37.502;2022-10-31T12:07:48;2.83;;;2.70;;
32407;SDS011;18869;55.970;37.502;2022-10-31T12:10:16;2.60;;;2.50;;
32407;SDS011;18869;55.970;37.502;2022-10-31T12:12:54;2.90;;;2.80;;
32407;SDS011;18869;55.970;37.502;2022-10-31T12:15:30;3.40;;;3.10;;
32407;SDS011;18869;55.970;37.502;2022-10-31T12:20:56;2.87;;;2.77;;
32407;SDS011;18869;55.970;37.502;2022-10-31T12:23:33;3.50;;;3.30;;
32407;SDS011;18869;55.970;37.502;2022-10-31T12:26:08;3.10;;;2.90;;
32407;SDS011;18869;55.970;37.502;2022-10-31T12:28:43;2.70;;;2.60;;
32407;SDS011;18869;55.970;37.502;2022-10-31T12:31:26;2.63;;;2.53;;
32407;SDS011;18869;55.970;37.502;2022-10-31T12:34:02;2.70;;;2.60;;
32407;SDS011;18869;55.970;37.502;2022-10-31T12:36:58;2.67;;;2.57;;
32407;SDS011;18869;55.970;37.502;2022-10-31T12:39:30;2.80;;;2.70;;
32407;SDS011;18869;55.970;37.502;2022-10-31T12:42:06;3.13;;;2.83;;
32407;SDS011;18869;55.970;37.502;2022-10-31T12:44:47;2.37;;;2.27;;
32407;SDS011;18869;55.970;37.502;2022-10-31T12:47:38;2.97;;;2.77;;
32407;SDS011;18869;55.970;37.502;2022-10-31T12:50:27;2.93;;;2.73;;
32407;SDS011;18869;55.970;37.502;2022-10-31T12:53:04;2.37;;;2.27;;
32407;SDS011;18869;55.970;37.502;2022-10-31T12:55:43;2.93;;;2.80;;
32407;SDS011;18869;55.970;37.502;2022-10-31T12:58:17;2.70;;;2.60;;
32407;SDS011;18869;55.970;37.502;2022-10-31T13:00:54;2.70;;;2.60;;
32407;SDS011;18869;55.970;37.502;2022-10-31T13:03:32;2.70;;;2.60;;
32407;SDS011;18869;55.970;37.502;2022-10-31T13:06:07;2.20;;;2.10;;
32407;SDS011;18869;55.970;37.502;2022-10-31T13:08:38;3.33;;;3.03;;
32407;SDS011;18869;55.970;37.502;2022-10-31T13:11:11;3.03;;;2.83;;
32407;SDS011;18869;55.970;37.502;2022-10-31T13:13:41;2.40;;;2.30;;
32407;SDS011;18869;55.970;37.502;2022-10-31T13:16:13;3.43;;;3.13;;
32407;SDS011;18869;55.970;37.502;2022-10-31T13:18:43;2.70;;;2.50;;
32407;SDS011;18869;55.970;37.502;2022-10-31T13:21:16;3.90;;;3.60;;
32407;SDS011;18869;55.970;37.502;2022-10-31T13:23:47;3.17;;;2.97;;
32407;SDS011;18869;55.970;37.502;2022-10-31T13:26:18;3.40;;;3.20;;
32407;SDS011;18869;55.970;37.502;2022-10-31T13:28:50;2.77;;;2.60;;
32407;SDS011;18869;55.970;37.502;2022-10-31T13:31:23;3.80;;;3.50;;
32407;SDS011;18869;55.970;37.502;2022-10-31T13:33:51;2.87;;;2.70;;
32407;SDS011;18869;55.970;37.502;2022-10-31T13:36:23;3.17;;;2.97;;
32407;SDS011;18869;55.970;37.502;2022-10-31T13:38:57;3.07;;;2.87;;
32407;SDS011;18869;55.970;37.502;2022-10-31T13:41:32;3.60;;;3.23;;
32407;SDS011;18869;55.970;37.502;2022-10-31T13:44:06;2.73;;;2.50;;
32407;SDS011;18869;55.970;37.502;2022-10-31T13:46:40;2.77;;;2.57;;
32407;SDS011;18869;55.970;37.502;2022-10-31T13:49:35;3.10;;;2.93;;
32407;SDS011;18869;55.970;37.502;2022-10-31T13:52:13;3.10;;;2.90;;
32407;SDS011;18869;55.970;37.502;2022-10-31T13:54:43;2.90;;;2.70;;
32407;SDS011;18869;55.970;37.502;2022-10-31T13:57:14;2.83;;;2.73;;
32407;SDS011;18869;55.970;37.502;2022-10-31T13:59:46;2.67;;;2.57;;
32407;SDS011;18869;55.970;37.502;2022-10-31T14:02:17;2.90;;;2.73;;
32407;SDS011;18869;55.970;37.502;2022-10-31T14:04:47;2.40;;;2.30;;
32407;SDS011;18869;55.970;37.502;2022-10-31T14:07:18;3.20;;;3.00;;
32407;SDS011;18869;55.970;37.502;2022-10-31T14:09:51;2.80;;;2.60;;
32407;SDS011;18869;55.970;37.502;2022-10-31T14:12:23;2.93;;;2.73;;
32407;SDS011;18869;55.970;37.502;2022-10-31T14:14:56;2.80;;;2.70;;
32407;SDS011;18869;55.970;37.502;2022-10-31T14:17:27;3.10;;;2.90;;
32407;SDS011;18869;55.970;37.502;2022-10-31T14:19:59;3.10;;;2.80;;
32407;SDS011;18869;55.970;37.502;2022-10-31T14:22:29;3.43;;;3.23;;
32407;SDS011;18869;55.970;37.502;2022-10-31T14:24:57;2.47;;;2.37;;
32407;SDS011;18869;55.970;37.502;2022-10-31T14:27:32;3.13;;;3.03;;
32407;SDS011;18869;55.970;37.502;2022-10-31T14:30:12;2.57;;;2.47;;
32407;SDS011;18869;55.970;37.502;2022-10-31T14:32:44;3.57;;;3.27;;
32407;SDS011;18869;55.970;37.502;2022-10-31T14:35:17;2.53;;;2.43;;
32407;SDS011;18869;55.970;37.502;2022-10-31T14:37:52;3.57;;;3.37;;
32407;SDS011;18869;55.970;37.502;2022-10-31T14:40:33;3.67;;;3.37;;
32407;SDS011;18869;55.970;37.502;2022-10-31T14:45:59;3.03;;;2.83;;
32407;SDS011;18869;55.970;37.502;2022-10-31T14:48:43;3.50;;;3.30;;
32407;SDS011;18869;55.970;37.502;2022-10-31T14:51:19;3.40;;;3.20;;
32407;SDS011;18869;55.970;37.502;2022-10-31T14:53:49;3.03;;;2.83;;
32407;SDS011;18869;55.970;37.502;2022-10-31T14:56:20;2.87;;;2.77;;
32407;SDS011;18869;55.970;37.502;2022-10-31T14:58:49;2.80;;;2.60;;
32407;SDS011;18869;55.970;37.502;2022-10-31T15:01:19;2.60;;;2.50;;
32407;SDS011;18869;55.970;37.502;2022-10-31T15:03:54;2.90;;;2.73;;
32407;SDS011;18869;55.970;37.502;2022-10-31T15:06:26;3.30;;;3.10;;
32407;SDS011;18869;55.970;37.502;2022-10-31T15:08:54;2.97;;;2.77;;